createdAt,value
2022-08-10T00:01:53.616Z,101429.28
2022-08-10T00:04:23.835Z,101436.31
2022-08-10T00:06:55.789Z,101438.78
2022-08-10T00:09:25.047Z,101438.06
2022-08-10T00:11:52.671Z,101434.47
2022-08-10T00:14:20.645Z,101422.47
2022-08-10T00:16:48.795Z,101432.81
2022-08-10T00:19:18.085Z,101428.56
2022-08-10T00:21:47.429Z,101427.81
2022-08-10T00:24:15.803Z,101433.09
2022-08-10T00:27:50.066Z,101431.19
2022-08-10T00:29:32.386Z,101436.44
2022-08-10T00:32:00.085Z,101424.09
2022-08-10T00:34:29.690Z,101432.91
2022-08-10T00:36:58.807Z,101430.84
2022-08-10T00:39:28.646Z,101432.66
2022-08-10T00:42:02.175Z,101432.00
2022-08-10T00:44:44.484Z,101432.94
2022-08-10T00:47:22.550Z,101431.19
2022-08-10T00:50:01.852Z,101427.91
2022-08-10T00:52:30.911Z,101422.94
2022-08-10T00:54:59.267Z,101432.34
2022-08-10T00:57:27.760Z,101436.66
2022-08-10T00:59:59.323Z,101427.03
2022-08-10T01:02:30.603Z,101434.47
2022-08-10T01:05:07.802Z,101432.66
2022-08-10T01:07:53.514Z,101438.63
2022-08-10T01:10:28.398Z,101433.16
2022-08-10T01:13:14.287Z,101440.91
2022-08-10T01:16:18.172Z,101437.28
2022-08-10T01:19:18.101Z,101442.41
2022-08-10T01:22:10.398Z,101445.00
2022-08-10T01:24:59.927Z,101438.59
2022-08-10T01:27:36.494Z,101444.91
2022-08-10T01:30:13.441Z,101438.94
2022-08-10T01:33:06.898Z,101441.63
2022-08-10T01:35:46.172Z,101443.78
2022-08-10T01:38:42.000Z,101445.69
2022-08-10T01:41:45.553Z,101437.16
2022-08-10T01:44:16.623Z,101444.13
2022-08-10T01:46:56.905Z,101447.75
2022-08-10T01:49:26.897Z,101444.22
2022-08-10T01:52:00.511Z,101450.34
2022-08-10T01:54:30.648Z,101438.44
2022-08-10T01:56:59.828Z,101449.75
2022-08-10T01:59:41.811Z,101450.41
2022-08-10T02:02:25.540Z,101447.09
2022-08-10T02:04:54.695Z,101449.41
2022-08-10T02:07:27.724Z,101449.41
2022-08-10T02:10:04.799Z,101452.00
2022-08-10T02:12:35.984Z,101453.50
2022-08-10T02:15:12.661Z,101448.31
2022-08-10T02:18:02.245Z,101441.31
2022-08-10T02:20:40.189Z,101444.63
2022-08-10T02:23:16.508Z,101450.13
2022-08-10T02:25:45.046Z,101447.50
2022-08-10T02:28:29.992Z,101445.25
2022-08-10T02:31:16.844Z,101444.59
2022-08-10T02:33:56.529Z,101444.84
2022-08-10T02:36:32.122Z,101446.88
2022-08-10T02:39:04.848Z,101455.06
2022-08-10T02:45:14.169Z,101458.66
2022-08-10T02:45:24.707Z,101448.13
2022-08-10T02:48:07.244Z,101459.16
2022-08-10T02:50:40.331Z,101458.81
2022-08-10T02:53:55.751Z,101454.97
2022-08-10T02:56:58.461Z,101450.00
2022-08-10T02:59:42.055Z,101448.22
2022-08-10T03:02:20.049Z,101445.09
2022-08-10T03:04:55.277Z,101455.84
2022-08-10T03:07:44.352Z,101453.50
2022-08-10T03:10:41.092Z,101458.88
2022-08-10T03:13:11.236Z,101460.75
2022-08-10T03:15:40.377Z,101455.28
2022-08-10T03:18:09.351Z,101462.53
2022-08-10T03:20:40.806Z,101466.06
2022-08-10T03:23:23.372Z,101466.72
2022-08-10T03:25:55.116Z,101463.28
2022-08-10T03:28:29.264Z,101467.78
2022-08-10T03:31:00.092Z,101458.53
2022-08-10T03:33:32.446Z,101468.00
2022-08-10T03:36:43.773Z,101468.16
2022-08-10T03:38:51.891Z,101461.00
2022-08-10T03:41:36.641Z,101471.28
2022-08-10T03:44:06.951Z,101474.56
2022-08-10T03:46:37.393Z,101468.41
2022-08-10T03:49:07.063Z,101476.84
2022-08-10T03:51:36.097Z,101477.56
2022-08-10T03:54:07.374Z,101482.91
2022-08-10T03:56:37.616Z,101481.03
2022-08-10T03:59:07.595Z,101481.97
2022-08-10T04:02:41.696Z,101482.84
2022-08-10T04:04:25.666Z,101479.22
2022-08-10T04:06:57.077Z,101486.16
2022-08-10T04:09:54.353Z,101484.31
2022-08-10T04:12:24.373Z,101487.69
2022-08-10T04:14:53.544Z,101483.63
2022-08-10T04:18:01.311Z,101487.75
2022-08-10T04:20:34.385Z,101495.34
2022-08-10T04:23:12.304Z,101492.34
2022-08-10T04:25:41.031Z,101496.66
2022-08-10T04:28:10.744Z,101499.03
2022-08-10T04:30:40.521Z,101491.69
2022-08-10T04:33:13.824Z,101502.97
2022-08-10T04:35:45.232Z,101502.31
2022-08-10T04:38:15.615Z,101503.81
2022-08-10T04:40:45.118Z,101504.56
2022-08-10T04:43:13.596Z,101504.47
2022-08-10T04:45:50.423Z,101503.41
2022-08-10T04:48:39.900Z,101500.06
2022-08-10T04:51:18.428Z,101507.81
2022-08-10T04:54:04.864Z,101500.53
2022-08-10T04:56:37.149Z,101502.03
2022-08-10T04:59:06.920Z,101500.09
2022-08-10T05:02:21.359Z,101507.38
2022-08-10T05:04:36.624Z,101509.69
2022-08-10T05:07:18.404Z,101515.00
2022-08-10T05:10:01.827Z,101516.06
2022-08-10T05:12:37.387Z,101514.00
2022-08-10T05:15:13.906Z,101515.38
2022-08-10T05:18:03.320Z,101516.53
2022-08-10T05:20:31.269Z,101513.88
2022-08-10T05:22:59.065Z,101523.63
2022-08-10T05:25:26.842Z,101521.16
2022-08-10T05:27:57.480Z,101518.34
2022-08-10T05:30:25.488Z,101520.31
2022-08-10T05:32:58.530Z,101524.72
2022-08-10T05:35:55.187Z,101524.31
2022-08-10T05:38:20.774Z,101520.09
2022-08-10T05:40:50.465Z,101523.28
2022-08-10T05:43:22.438Z,101523.97
2022-08-10T05:46:19.938Z,101528.03
2022-08-10T05:48:58.811Z,101527.16
2022-08-10T05:51:30.093Z,101522.00
2022-08-10T05:54:05.120Z,101527.03
2022-08-10T05:56:53.265Z,101524.91
2022-08-10T06:00:31.061Z,101526.13
2022-08-10T06:02:35.512Z,101537.69
2022-08-10T06:05:32.264Z,101538.94
2022-08-10T06:08:17.573Z,101528.38
2022-08-10T06:12:16.467Z,101533.97
2022-08-10T06:14:06.144Z,101529.41
2022-08-10T06:16:43.895Z,101530.94
2022-08-10T06:19:15.170Z,101540.19
2022-08-10T06:21:53.736Z,101535.72
2022-08-10T06:24:31.403Z,101538.66
2022-08-10T06:27:00.040Z,101534.81
2022-08-10T06:29:30.935Z,101535.47
2022-08-10T06:32:01.392Z,101539.44
2022-08-10T06:34:36.501Z,101533.28
2022-08-10T06:37:06.543Z,101532.03
2022-08-10T06:39:36.762Z,101535.78
2022-08-10T06:42:35.711Z,101535.94
2022-08-10T06:45:16.632Z,101536.28
2022-08-10T06:47:56.004Z,101529.63
2022-08-10T06:50:44.822Z,101524.47
2022-08-10T06:53:19.551Z,101529.00
2022-08-10T06:55:55.526Z,101529.75
2022-08-10T06:58:29.136Z,101520.63
2022-08-10T07:00:58.890Z,101535.78
2022-08-10T07:03:35.420Z,101530.06
2022-08-10T07:06:06.777Z,101519.88
2022-08-10T07:08:36.946Z,101527.59
2022-08-10T07:11:11.850Z,101530.22
2022-08-10T07:14:15.568Z,101529.97
2022-08-10T07:16:32.400Z,101536.38
2022-08-10T07:19:01.719Z,101534.97
2022-08-10T07:21:31.088Z,101534.75
2022-08-10T07:24:02.295Z,101537.94
2022-08-10T07:26:32.982Z,101530.41
2022-08-10T07:29:02.223Z,101532.13
2022-08-10T07:31:55.190Z,101536.16
2022-08-10T07:34:29.422Z,101533.16
2022-08-10T07:37:03.709Z,101540.06
2022-08-10T07:40:02.552Z,101539.63
2022-08-10T07:42:24.386Z,101531.13
2022-08-10T07:44:52.930Z,101526.31
2022-08-10T07:47:46.092Z,101530.94
2022-08-10T07:50:22.568Z,101538.78
2022-08-10T07:52:52.112Z,101528.53
2022-08-10T07:56:05.317Z,101534.00
2022-08-10T07:58:11.520Z,101539.69
2022-08-10T08:00:40.945Z,101536.56
2022-08-10T08:03:10.836Z,101536.13
2022-08-10T08:05:58.443Z,101541.63
2022-08-10T08:08:30.474Z,101531.84
2022-08-10T08:10:59.658Z,101534.56
2022-08-10T08:13:28.279Z,101534.75
2022-08-10T08:16:17.532Z,101531.81
2022-08-10T08:18:54.182Z,101526.34
2022-08-10T08:24:08.455Z,101527.13
2022-08-10T08:24:33.518Z,101516.34
2022-08-10T08:27:03.821Z,101520.66
2022-08-10T08:29:37.301Z,101515.88
2022-08-10T08:32:06.391Z,101515.63
2022-08-10T08:34:38.747Z,101513.03
2022-08-10T08:37:09.765Z,101515.03
2022-08-10T08:39:38.628Z,101504.91
2022-08-10T08:42:26.311Z,101516.06
2022-08-10T08:45:34.424Z,101508.75
2022-08-10T08:48:08.385Z,101510.38
2022-08-10T08:52:07.102Z,101507.22
2022-08-10T08:54:16.945Z,101502.38
2022-08-10T08:57:07.064Z,101506.28
2022-08-10T09:00:07.000Z,101501.22
2022-08-10T09:02:58.460Z,101505.56
2022-08-10T09:05:58.792Z,101501.19
2022-08-10T09:08:51.453Z,101496.81
2022-08-10T09:11:56.514Z,101502.72
2022-08-10T09:14:33.441Z,101501.47
2022-08-10T09:17:25.041Z,101492.16
2022-08-10T09:20:07.893Z,101493.63
2022-08-10T09:22:44.767Z,101501.97
2022-08-10T09:25:24.706Z,101501.38
2022-08-10T09:28:01.270Z,101491.00
2022-08-10T09:31:18.804Z,101489.03
2022-08-10T09:36:20.490Z,101488.44
2022-08-10T09:37:08.660Z,101489.91
2022-08-10T09:40:12.573Z,101491.72
2022-08-10T09:43:25.563Z,101480.84
2022-08-10T09:46:06.604Z,101478.78
2022-08-10T09:49:17.340Z,101480.63
2022-08-10T09:52:00.834Z,101467.69
2022-08-10T09:54:50.066Z,101471.94
2022-08-10T09:57:44.099Z,101463.31
2022-08-10T10:00:40.543Z,101467.50
2022-08-10T10:03:40.712Z,101459.69
2022-08-10T10:06:21.018Z,101463.31
2022-08-10T10:09:10.686Z,101465.75
2022-08-10T10:12:17.684Z,101465.34
2022-08-10T10:15:24.626Z,101453.31
2022-08-10T10:18:21.934Z,101454.94
2022-08-10T10:21:24.240Z,101445.94
2022-08-10T10:24:21.452Z,101447.44
2022-08-10T10:26:57.939Z,101442.03
2022-08-10T10:29:58.773Z,101435.94
2022-08-10T10:32:37.139Z,101435.63
2022-08-10T10:35:41.277Z,101441.03
2022-08-10T10:38:12.249Z,101429.59
2022-08-10T10:41:14.043Z,101430.31
2022-08-10T10:44:09.854Z,101424.38
2022-08-10T10:46:56.874Z,101430.38
2022-08-10T10:49:46.296Z,101423.75
2022-08-10T10:52:47.752Z,101422.81
2022-08-10T10:56:13.366Z,101423.25
